createdAt,value
2022-10-24T00:01:02.754Z,68.70
2022-10-24T00:02:41.988Z,68.80
2022-10-24T00:04:19.029Z,69.00
2022-10-24T00:05:55.459Z,68.90
2022-10-24T00:07:33.045Z,68.90
2022-10-24T00:09:11.104Z,68.90
2022-10-24T00:10:53.315Z,69.00
2022-10-24T00:12:31.671Z,69.00
2022-10-24T00:14:09.133Z,68.90
2022-10-24T00:15:49.387Z,69.00
2022-10-24T00:17:26.467Z,69.00
2022-10-24T00:19:11.095Z,69.00
2022-10-24T00:20:47.432Z,69.20
2022-10-24T00:22:25.690Z,68.90
2022-10-24T00:24:04.584Z,69.00
2022-10-24T00:25:44.968Z,69.00
2022-10-24T00:27:22.729Z,69.00
2022-10-24T00:29:03.016Z,69.10
2022-10-24T00:30:40.493Z,69.30
2022-10-24T00:32:23.422Z,69.20
2022-10-24T00:34:01.542Z,69.20
2022-10-24T00:35:41.470Z,69.00
2022-10-24T00:37:24.983Z,69.00
2022-10-24T00:39:02.747Z,68.90
2022-10-24T00:40:40.363Z,68.90
2022-10-24T00:42:18.433Z,68.90
2022-10-24T00:44:15.971Z,69.10
2022-10-24T00:45:59.009Z,69.20
2022-10-24T00:47:39.384Z,69.30
2022-10-24T00:49:24.094Z,69.30
2022-10-24T00:51:08.190Z,69.30
2022-10-24T00:52:51.554Z,69.20
2022-10-24T00:54:30.317Z,69.30
2022-10-24T00:56:14.192Z,69.30
2022-10-24T00:58:02.409Z,69.30
2022-10-24T00:59:44.656Z,69.40
2022-10-24T01:01:23.572Z,69.40
2022-10-24T01:02:58.254Z,69.50
2022-10-24T01:04:34.015Z,69.50
2022-10-24T01:06:39.973Z,69.60
2022-10-24T01:08:30.126Z,70.10
2022-10-24T01:12:33.118Z,70.20
2022-10-24T01:14:27.100Z,70.10
2022-10-24T01:16:14.096Z,70.20
2022-10-24T01:18:01.974Z,70.30
2022-10-24T01:20:26.104Z,70.30
2022-10-24T01:22:14.064Z,70.40
2022-10-24T01:24:37.700Z,70.30
2022-10-24T01:26:36.205Z,70.60
2022-10-24T01:28:15.574Z,70.40
2022-10-24T01:30:05.172Z,70.50
2022-10-24T01:31:48.845Z,70.60
2022-10-24T01:33:31.664Z,70.80
2022-10-24T01:35:18.415Z,70.90
2022-10-24T01:37:00.249Z,71.10
2022-10-24T01:38:41.809Z,71.10
2022-10-24T01:40:20.952Z,71.20
2022-10-24T01:42:02.704Z,71.20
2022-10-24T01:43:42.775Z,71.20
2022-10-24T01:45:25.209Z,72.30
2022-10-24T01:47:05.009Z,71.50
2022-10-24T01:48:49.069Z,71.60
2022-10-24T01:50:27.652Z,71.70
2022-10-24T01:52:07.000Z,71.80
2022-10-24T01:53:43.445Z,71.90
2022-10-24T01:55:16.847Z,71.90
2022-10-24T01:56:50.815Z,72.00
2022-10-24T01:58:24.359Z,72.10
2022-10-24T01:59:58.019Z,72.20
2022-10-24T02:01:34.281Z,72.20
2022-10-24T02:03:22.399Z,72.40
2022-10-24T02:05:01.400Z,72.50
2022-10-24T02:06:41.344Z,72.40
2022-10-24T02:08:25.697Z,72.50
2022-10-24T02:10:06.373Z,72.40
2022-10-24T02:11:41.678Z,72.50
2022-10-24T02:13:28.810Z,72.40
2022-10-24T02:15:17.547Z,72.50
2022-10-24T02:16:55.116Z,72.70
2022-10-24T02:18:35.800Z,72.40
2022-10-24T02:20:15.997Z,72.30
2022-10-24T02:22:06.431Z,72.40
2022-10-24T02:23:55.273Z,72.50
2022-10-24T02:25:39.164Z,72.40
2022-10-24T02:27:24.096Z,72.30
2022-10-24T02:29:07.432Z,72.20
2022-10-24T02:30:54.754Z,72.20
2022-10-24T02:32:40.373Z,72.40
2022-10-24T02:34:24.395Z,72.60
2022-10-24T02:36:09.649Z,72.80
2022-10-24T02:37:58.712Z,72.90
2022-10-24T02:39:38.073Z,72.90
2022-10-24T02:41:25.461Z,73.00
2022-10-24T02:43:07.157Z,73.10
2022-10-24T02:44:47.884Z,73.20
2022-10-24T02:46:27.341Z,73.40
2022-10-24T02:48:11.179Z,73.40
2022-10-24T02:49:49.728Z,73.60
2022-10-24T02:51:32.858Z,73.70
2022-10-24T02:53:16.208Z,73.80
2022-10-24T02:54:55.511Z,74.00
2022-10-24T02:56:34.985Z,74.30
2022-10-24T02:58:12.882Z,74.50
2022-10-24T02:59:53.836Z,74.60
2022-10-24T03:01:36.716Z,74.70
2022-10-24T03:03:16.384Z,74.70
2022-10-24T03:04:54.353Z,74.70
2022-10-24T03:06:34.660Z,74.70
2022-10-24T03:08:11.859Z,74.70
2022-10-24T03:09:49.944Z,74.80
2022-10-24T03:11:25.868Z,74.80
2022-10-24T03:13:13.568Z,75.00
2022-10-24T03:14:51.510Z,75.00
2022-10-24T03:16:32.928Z,75.00
2022-10-24T03:18:10.421Z,75.10
2022-10-24T03:19:49.880Z,75.00
2022-10-24T03:21:40.802Z,75.00
2022-10-24T03:23:20.344Z,75.00
2022-10-24T03:24:58.866Z,75.00
2022-10-24T03:26:36.414Z,75.00
2022-10-24T03:28:15.443Z,74.90
2022-10-24T03:29:54.693Z,74.60
2022-10-24T03:31:34.148Z,74.50
2022-10-24T03:33:10.830Z,74.50
2022-10-24T03:34:51.510Z,74.50
2022-10-24T03:36:30.442Z,74.50
2022-10-24T03:38:09.252Z,74.50
2022-10-24T03:39:47.528Z,74.50
2022-10-24T03:41:25.707Z,74.50
2022-10-24T03:43:03.563Z,74.40
2022-10-24T03:44:41.937Z,74.30
2022-10-24T03:46:22.955Z,74.20
2022-10-24T03:48:02.039Z,74.20
2022-10-24T03:49:40.376Z,74.50
2022-10-24T03:51:19.677Z,73.90
2022-10-24T03:53:07.741Z,73.80
2022-10-24T03:54:45.119Z,73.70
2022-10-24T03:56:22.953Z,73.70
2022-10-24T03:58:00.596Z,73.70
2022-10-24T03:59:38.600Z,73.90
2022-10-24T04:01:20.420Z,74.00
2022-10-24T04:02:58.734Z,73.90
2022-10-24T04:04:37.186Z,73.90
2022-10-24T04:06:15.318Z,73.80
2022-10-24T04:07:54.007Z,73.80
2022-10-24T04:09:32.569Z,73.90
2022-10-24T04:11:10.747Z,73.90
2022-10-24T04:12:51.539Z,73.80
2022-10-24T04:14:29.485Z,73.80
2022-10-24T04:16:07.950Z,73.80
2022-10-24T04:17:46.196Z,73.80
2022-10-24T04:19:25.214Z,73.80
2022-10-24T04:21:03.125Z,73.80
2022-10-24T04:22:41.082Z,73.70
2022-10-24T04:24:21.442Z,73.60
2022-10-24T04:25:59.449Z,73.70
2022-10-24T04:27:42.659Z,73.60
2022-10-24T04:29:22.080Z,73.50
2022-10-24T04:31:00.427Z,73.40
2022-10-24T04:32:39.057Z,73.40
2022-10-24T04:34:20.205Z,73.30
2022-10-24T04:36:02.388Z,73.20
2022-10-24T04:37:43.316Z,73.10
2022-10-24T04:39:22.575Z,73.10
2022-10-24T04:41:01.527Z,73.00
2022-10-24T04:42:41.734Z,72.90
2022-10-24T04:44:20.627Z,73.00
2022-10-24T04:45:57.649Z,72.80
2022-10-24T04:47:35.813Z,72.80
2022-10-24T04:49:13.510Z,72.70
2022-10-24T04:50:52.082Z,72.70
2022-10-24T04:52:30.202Z,72.60
2022-10-24T04:54:09.479Z,72.50
2022-10-24T04:55:49.398Z,72.30
2022-10-24T04:57:26.660Z,72.20
2022-10-24T04:59:04.516Z,72.10
2022-10-24T05:00:47.382Z,71.90
2022-10-24T05:02:24.852Z,71.90
2022-10-24T05:04:02.852Z,71.90
2022-10-24T05:05:43.699Z,71.90
2022-10-24T05:07:22.526Z,71.90
2022-10-24T05:09:01.777Z,71.90
2022-10-24T05:10:40.190Z,71.80
2022-10-24T05:12:20.655Z,71.70
2022-10-24T05:13:58.271Z,71.80
2022-10-24T05:15:36.010Z,71.70
2022-10-24T05:17:15.233Z,71.70
2022-10-24T05:18:53.800Z,71.70
2022-10-24T05:20:34.253Z,71.60
2022-10-24T05:22:12.290Z,71.50
2022-10-24T05:23:50.308Z,71.40
2022-10-24T05:25:28.339Z,71.40
2022-10-24T05:27:07.078Z,71.30
2022-10-24T05:28:51.578Z,71.40
2022-10-24T05:30:32.355Z,71.40
2022-10-24T05:32:12.693Z,71.30
2022-10-24T05:33:50.897Z,71.20
2022-10-24T05:35:28.794Z,71.10
2022-10-24T05:37:09.100Z,71.10
2022-10-24T05:38:46.198Z,70.90
2022-10-24T05:40:24.256Z,70.80
2022-10-24T05:42:01.756Z,70.60
2022-10-24T05:43:39.420Z,70.50
2022-10-24T05:45:18.275Z,70.50
2022-10-24T05:46:56.284Z,70.50
2022-10-24T05:48:33.184Z,70.40
2022-10-24T05:50:12.504Z,70.30
2022-10-24T05:51:50.429Z,70.40
2022-10-24T05:53:29.384Z,70.30
2022-10-24T05:55:08.615Z,70.10
2022-10-24T05:56:47.515Z,70.00
2022-10-24T05:58:26.600Z,70.00
2022-10-24T06:00:04.216Z,70.00
2022-10-24T06:02:04.012Z,69.90
2022-10-24T06:03:41.947Z,69.60
2022-10-24T06:05:20.227Z,69.60
2022-10-24T06:06:58.405Z,69.50
2022-10-24T06:08:39.652Z,69.50
2022-10-24T06:10:17.537Z,69.40
2022-10-24T06:11:55.912Z,69.50
2022-10-24T06:13:36.919Z,69.30
2022-10-24T06:15:16.178Z,69.10
2022-10-24T06:16:54.394Z,68.90
2022-10-24T06:18:37.930Z,68.90
2022-10-24T06:20:15.118Z,69.00
2022-10-24T06:21:57.832Z,69.00
2022-10-24T06:23:36.450Z,69.00
2022-10-24T06:25:15.318Z,69.10
2022-10-24T06:26:53.725Z,69.00
2022-10-24T06:28:38.674Z,68.90
2022-10-24T06:30:16.408Z,68.80
2022-10-24T06:31:57.346Z,68.70
2022-10-24T06:33:40.545Z,68.60
2022-10-24T06:35:20.040Z,68.70
2022-10-24T06:37:02.885Z,68.60
2022-10-24T06:38:44.652Z,68.60
2022-10-24T06:40:25.079Z,68.60
2022-10-24T06:42:03.594Z,68.50
2022-10-24T06:43:43.306Z,68.60
2022-10-24T06:45:23.676Z,68.70
2022-10-24T06:47:02.664Z,68.80
2022-10-24T06:48:44.900Z,68.80
2022-10-24T06:50:22.724Z,68.80
2022-10-24T06:52:01.039Z,68.70
2022-10-24T06:53:39.042Z,68.80
2022-10-24T06:55:22.014Z,68.80
2022-10-24T06:57:02.561Z,68.90
2022-10-24T06:58:44.637Z,69.00
2022-10-24T07:00:23.141Z,68.90
2022-10-24T07:02:04.941Z,69.00
2022-10-24T07:03:47.636Z,68.90
2022-10-24T07:05:25.503Z,68.90
2022-10-24T07:07:03.559Z,68.80
2022-10-24T07:08:50.093Z,68.80
2022-10-24T07:10:27.444Z,68.80
2022-10-24T07:12:04.974Z,69.00
2022-10-24T07:13:43.233Z,69.00
2022-10-24T07:15:20.815Z,69.20
2022-10-24T07:16:59.891Z,69.00
2022-10-24T07:18:50.264Z,69.00
2022-10-24T07:20:27.941Z,69.00
2022-10-24T07:22:05.724Z,69.20
2022-10-24T07:23:43.267Z,69.20
2022-10-24T07:25:21.552Z,68.90
2022-10-24T07:26:59.042Z,68.90
2022-10-24T07:28:37.683Z,68.70
2022-10-24T07:30:21.272Z,68.90
2022-10-24T07:32:00.367Z,69.00
2022-10-24T07:33:40.883Z,68.70
2022-10-24T07:35:20.804Z,68.50
2022-10-24T07:36:58.439Z,68.40
2022-10-24T07:38:36.119Z,68.50
2022-10-24T07:40:17.460Z,68.60
2022-10-24T07:41:55.848Z,68.50
2022-10-24T07:43:34.035Z,68.40
2022-10-24T07:45:13.425Z,68.50
2022-10-24T07:46:51.320Z,68.40
2022-10-24T07:48:28.443Z,68.50
2022-10-24T07:50:06.936Z,68.60
2022-10-24T07:51:51.495Z,68.40
2022-10-24T07:53:28.999Z,68.20
2022-10-24T07:55:06.664Z,68.20
2022-10-24T07:56:44.416Z,67.90
2022-10-24T07:58:21.605Z,67.60
2022-10-24T08:00:00.008Z,67.60
2022-10-24T08:01:38.292Z,67.30
2022-10-24T08:03:16.722Z,67.30
2022-10-24T08:04:54.296Z,67.50
2022-10-24T08:06:34.974Z,67.00
2022-10-24T08:10:17.139Z,67.00
2022-10-24T08:11:54.152Z,66.80
2022-10-24T08:13:31.445Z,67.00
2022-10-24T08:15:12.199Z,66.70
2022-10-24T08:16:52.950Z,66.50
2022-10-24T08:18:38.525Z,66.20
2022-10-24T08:20:17.621Z,66.30
2022-10-24T08:22:00.186Z,66.30
2022-10-24T08:23:42.863Z,66.10
2022-10-24T08:25:21.801Z,66.10
2022-10-24T08:26:59.868Z,66.00
2022-10-24T08:28:40.695Z,65.60
2022-10-24T08:30:18.552Z,65.70
2022-10-24T08:32:01.596Z,65.50
2022-10-24T08:33:51.734Z,65.40
2022-10-24T08:35:29.304Z,65.40
2022-10-24T08:37:08.386Z,65.50
2022-10-24T08:38:46.848Z,65.40
2022-10-24T08:40:25.334Z,65.00
2022-10-24T08:42:06.764Z,65.10
2022-10-24T08:43:44.456Z,64.70
2022-10-24T08:45:34.587Z,64.80
2022-10-24T08:47:28.623Z,64.70
2022-10-24T08:49:16.977Z,64.70
2022-10-24T08:51:05.049Z,64.70
2022-10-24T08:52:49.536Z,64.60
2022-10-24T08:54:35.417Z,64.50
2022-10-24T08:56:18.891Z,64.40
2022-10-24T08:58:00.490Z,64.00
2022-10-24T08:59:45.050Z,63.70
2022-10-24T09:01:37.338Z,63.30
2022-10-24T09:03:44.003Z,62.90
2022-10-24T09:05:32.030Z,63.00
2022-10-24T09:07:17.117Z,63.00
2022-10-24T09:08:59.153Z,63.20
2022-10-24T09:10:49.943Z,63.20
2022-10-24T09:12:28.123Z,62.50
2022-10-24T09:14:14.991Z,62.50
2022-10-24T09:15:55.384Z,62.30
2022-10-24T09:17:36.225Z,62.20
2022-10-24T09:19:33.740Z,62.10
2022-10-24T09:21:15.794Z,62.10
2022-10-24T09:22:54.065Z,61.90
2022-10-24T09:24:42.192Z,62.00
2022-10-24T09:26:31.235Z,61.40
2022-10-24T09:28:10.090Z,61.00
2022-10-24T09:29:48.475Z,61.40
2022-10-24T09:31:29.052Z,61.30
2022-10-24T09:33:25.500Z,61.30
2022-10-24T09:35:16.405Z,61.40
2022-10-24T09:36:54.742Z,61.10
2022-10-24T09:38:37.953Z,61.20
2022-10-24T09:40:25.928Z,60.90
2022-10-24T09:42:09.063Z,61.00
2022-10-24T09:43:55.963Z,61.00
2022-10-24T09:45:41.332Z,60.40
2022-10-24T09:47:31.539Z,60.80
2022-10-24T09:49:23.319Z,60.20
2022-10-24T09:51:03.054Z,60.20
2022-10-24T09:52:42.005Z,60.60
2022-10-24T09:54:31.450Z,60.50
2022-10-24T09:56:14.752Z,59.60
2022-10-24T09:57:59.084Z,60.10
2022-10-24T09:59:44.885Z,60.00
2022-10-24T10:01:25.081Z,60.20
2022-10-24T10:03:09.702Z,60.00
2022-10-24T10:04:48.884Z,60.00
2022-10-24T10:06:26.738Z,59.90
2022-10-24T10:08:19.156Z,59.80
2022-10-24T10:10:00.275Z,59.30
2022-10-24T10:11:40.771Z,59.60
2022-10-24T10:13:31.798Z,59.70
2022-10-24T10:15:31.887Z,59.50
2022-10-24T10:17:10.432Z,59.30
2022-10-24T10:18:49.481Z,59.40
2022-10-24T10:20:36.537Z,59.40
2022-10-24T10:22:29.548Z,59.30
2022-10-24T10:24:29.015Z,59.30
2022-10-24T10:26:22.017Z,59.40
2022-10-24T10:28:02.328Z,59.10
2022-10-24T10:29:42.118Z,59.30
2022-10-24T10:31:24.557Z,59.00
2022-10-24T10:33:20.251Z,58.90
2022-10-24T10:35:08.632Z,58.70
2022-10-24T10:37:17.889Z,58.80
2022-10-24T10:39:09.781Z,59.00
2022-10-24T10:40:51.238Z,58.90
2022-10-24T10:42:42.087Z,59.00
2022-10-24T10:44:55.958Z,58.70
2022-10-24T10:46:47.526Z,58.40
2022-10-24T10:48:45.139Z,58.70
2022-10-24T10:50:36.998Z,58.50
2022-10-24T10:52:23.501Z,58.70
2022-10-24T10:54:15.698Z,58.90
2022-10-24T10:56:05.573Z,58.90
2022-10-24T10:57:54.983Z,58.70
2022-10-24T10:59:50.004Z,58.70
2022-10-24T11:01:40.436Z,58.50
2022-10-24T11:03:45.716Z,58.80
2022-10-24T11:05:53.625Z,58.60
2022-10-24T11:07:45.792Z,58.80
2022-10-24T11:09:32.748Z,58.80
2022-10-24T11:11:19.469Z,58.80
2022-10-24T11:13:08.477Z,58.80
2022-10-24T11:14:54.692Z,58.70
2022-10-24T11:16:36.242Z,58.60
2022-10-24T11:18:20.478Z,58.60
2022-10-24T11:20:10.572Z,58.30
2022-10-24T11:21:50.097Z,58.20
2022-10-24T11:23:39.250Z,58.70
2022-10-24T11:25:28.904Z,58.60
2022-10-24T11:27:16.595Z,58.40
2022-10-24T11:29:05.667Z,58.50
2022-10-24T11:30:52.693Z,58.70
2022-10-24T11:32:48.223Z,58.40
2022-10-24T11:34:35.181Z,58.20
2022-10-24T11:36:23.713Z,58.40
2022-10-24T11:38:12.108Z,58.20
2022-10-24T11:39:58.429Z,58.30
2022-10-24T11:42:01.968Z,58.30
2022-10-24T11:43:46.598Z,57.50
2022-10-24T11:45:28.623Z,58.20
2022-10-24T11:47:45.048Z,58.20
2022-10-24T11:49:32.900Z,57.90
2022-10-24T11:51:28.832Z,58.10
2022-10-24T11:53:21.568Z,58.20
2022-10-24T11:55:09.012Z,58.00
2022-10-24T11:56:53.419Z,58.00
2022-10-24T11:58:37.141Z,57.80
2022-10-24T12:00:27.713Z,57.80
2022-10-24T12:02:54.124Z,57.70
2022-10-24T12:05:26.686Z,57.70
2022-10-24T12:08:14.146Z,57.70
2022-10-24T12:10:37.345Z,57.70
2022-10-24T12:12:36.748Z,57.60
2022-10-24T12:15:05.262Z,57.50
2022-10-24T12:16:57.784Z,57.20
2022-10-24T12:18:37.993Z,57.40
2022-10-24T12:20:18.776Z,57.50
2022-10-24T12:21:57.526Z,57.30
2022-10-24T12:23:31.601Z,57.50
2022-10-24T12:25:18.224Z,57.70
2022-10-24T12:27:02.705Z,57.40
2022-10-24T12:28:38.138Z,57.20
2022-10-24T12:30:21.637Z,57.60
2022-10-24T12:31:55.742Z,57.10
2022-10-24T12:33:30.192Z,57.20
2022-10-24T12:35:46.990Z,57.20
2022-10-24T12:37:35.371Z,57.00
2022-10-24T12:39:11.344Z,57.00
2022-10-24T12:40:57.593Z,57.10
2022-10-24T12:43:16.352Z,56.60
2022-10-24T12:44:50.871Z,56.20
2022-10-24T12:46:56.055Z,56.70
2022-10-24T12:48:35.702Z,56.10
2022-10-24T12:50:57.210Z,56.30
2022-10-24T12:53:04.365Z,56.00
2022-10-24T12:54:43.601Z,55.70
2022-10-24T12:56:26.855Z,56.00
2022-10-24T12:58:00.298Z,56.20
2022-10-24T12:59:46.553Z,56.20
2022-10-24T13:01:33.151Z,56.20
2022-10-24T13:03:21.918Z,56.10
2022-10-24T13:05:11.682Z,56.20
2022-10-24T13:07:16.331Z,56.40
2022-10-24T13:09:14.910Z,56.50
2022-10-24T13:11:07.201Z,56.40
2022-10-24T13:13:02.175Z,56.60
2022-10-24T13:15:04.150Z,56.60
2022-10-24T13:16:47.346Z,56.70
2022-10-24T13:18:45.208Z,56.60
2022-10-24T13:20:22.929Z,56.60
2022-10-24T13:21:59.581Z,56.90
2022-10-24T13:23:35.758Z,56.90
2022-10-24T13:25:33.701Z,57.00
2022-10-24T13:27:41.054Z,57.10
2022-10-24T13:29:44.018Z,57.10
2022-10-24T13:31:52.453Z,57.60
2022-10-24T13:33:46.674Z,58.00
2022-10-24T13:35:26.017Z,57.30
2022-10-24T13:37:13.278Z,57.90
2022-10-24T13:38:53.579Z,58.00
2022-10-24T13:40:30.722Z,57.90
2022-10-24T13:42:08.495Z,57.90
2022-10-24T13:43:49.394Z,57.90
2022-10-24T13:45:29.589Z,57.90
2022-10-24T13:47:17.765Z,57.90
2022-10-24T13:48:54.633Z,57.80
2022-10-24T13:50:34.596Z,57.80
2022-10-24T13:52:21.631Z,57.80
2022-10-24T13:54:02.864Z,57.80
2022-10-24T13:55:43.335Z,57.90
2022-10-24T13:57:27.868Z,57.70
2022-10-24T13:59:04.407Z,57.80
2022-10-24T14:00:44.286Z,57.70
2022-10-24T14:02:32.558Z,57.70
2022-10-24T14:04:09.052Z,57.90
2022-10-24T14:05:49.535Z,58.10
2022-10-24T14:07:33.618Z,58.10
2022-10-24T14:09:10.419Z,58.80
2022-10-24T14:10:44.295Z,58.10
2022-10-24T14:12:23.927Z,58.00
2022-10-24T14:14:04.294Z,58.00
2022-10-24T14:15:47.305Z,58.20
2022-10-24T14:17:26.247Z,58.20
2022-10-24T14:19:16.621Z,57.90
2022-10-24T14:20:54.989Z,57.70
2022-10-24T14:22:39.875Z,57.70
2022-10-24T14:24:18.314Z,57.50
2022-10-24T14:25:57.788Z,57.70
2022-10-24T14:27:31.278Z,57.60
2022-10-24T14:29:04.652Z,57.60
2022-10-24T14:30:38.009Z,57.60
2022-10-24T14:32:16.519Z,57.80
2022-10-24T14:33:53.603Z,57.80
2022-10-24T14:35:26.953Z,57.80
2022-10-24T14:37:05.400Z,57.80
2022-10-24T14:38:40.670Z,58.00
2022-10-24T14:40:19.024Z,58.00
2022-10-24T14:41:54.274Z,57.80
2022-10-24T14:43:31.701Z,57.90
2022-10-24T14:45:23.223Z,58.10
2022-10-24T14:47:06.279Z,58.00
2022-10-24T14:48:42.490Z,57.90
2022-10-24T14:50:37.209Z,58.10
2022-10-24T14:52:16.444Z,57.70
2022-10-24T14:53:51.921Z,58.00
2022-10-24T14:55:25.455Z,57.70
2022-10-24T14:57:00.639Z,57.80
2022-10-24T14:58:37.654Z,57.80
2022-10-24T15:00:23.069Z,58.20
2022-10-24T15:01:59.991Z,58.40
2022-10-24T15:03:37.432Z,58.10
2022-10-24T15:05:32.317Z,58.20
2022-10-24T15:07:32.015Z,58.40
2022-10-24T15:09:17.890Z,58.80
2022-10-24T15:11:05.565Z,58.70
2022-10-24T15:12:42.604Z,58.70
2022-10-24T15:14:34.611Z,58.50
2022-10-24T15:16:22.020Z,58.70
2022-10-24T15:17:59.945Z,58.50
2022-10-24T15:19:38.971Z,58.20
2022-10-24T15:21:18.218Z,58.50
2022-10-24T15:22:55.839Z,58.50
2022-10-24T15:24:31.373Z,58.70
2022-10-24T15:26:11.648Z,58.70
2022-10-24T15:27:46.773Z,58.70
2022-10-24T15:29:23.084Z,58.70
2022-10-24T15:30:56.375Z,58.70
2022-10-24T15:32:34.210Z,58.60
2022-10-24T15:34:22.395Z,58.60
2022-10-24T15:36:04.222Z,58.70
2022-10-24T15:37:55.372Z,58.70
2022-10-24T15:39:34.290Z,58.60
2022-10-24T15:41:13.529Z,58.50
2022-10-24T15:42:53.124Z,58.50
2022-10-24T15:44:36.373Z,58.50
2022-10-24T15:46:19.049Z,58.40
2022-10-24T15:47:53.036Z,58.50
2022-10-24T15:49:28.017Z,58.60
2022-10-24T15:51:01.247Z,58.50
2022-10-24T15:52:35.919Z,58.80
2022-10-24T15:54:12.505Z,58.40
2022-10-24T15:55:47.253Z,58.60
2022-10-24T15:57:20.811Z,59.20
2022-10-24T15:58:55.742Z,58.70
2022-10-24T16:00:28.999Z,58.90
2022-10-24T16:02:03.538Z,58.90
2022-10-24T16:03:37.361Z,58.90
2022-10-24T16:05:17.757Z,59.00
2022-10-24T16:06:51.785Z,59.00
2022-10-24T16:08:25.619Z,59.10
2022-10-24T16:09:58.771Z,58.90
2022-10-24T16:11:33.373Z,59.00
2022-10-24T16:13:07.384Z,59.00
2022-10-24T16:14:40.636Z,59.00
2022-10-24T16:16:13.917Z,58.90
2022-10-24T16:17:47.745Z,58.90
2022-10-24T16:19:21.039Z,58.80
2022-10-24T16:20:54.234Z,58.80
2022-10-24T16:22:27.361Z,58.90
2022-10-24T16:24:01.352Z,58.90
2022-10-24T16:25:38.185Z,58.80
2022-10-24T16:27:13.482Z,58.80
2022-10-24T16:28:46.539Z,58.70
2022-10-24T16:30:23.310Z,58.80
2022-10-24T16:32:05.662Z,58.80
2022-10-24T16:33:41.663Z,58.50
2022-10-24T16:35:20.962Z,58.50
2022-10-24T16:36:55.798Z,58.60
2022-10-24T16:38:29.185Z,58.60
2022-10-24T16:40:03.074Z,58.70
2022-10-24T16:41:36.450Z,58.60
2022-10-24T16:43:13.341Z,58.60
2022-10-24T16:44:46.630Z,58.70
2022-10-24T16:46:22.514Z,58.90
2022-10-24T16:47:55.753Z,59.00
2022-10-24T16:49:31.012Z,59.00
2022-10-24T16:51:04.343Z,58.90
2022-10-24T16:52:37.739Z,59.00
2022-10-24T16:54:22.668Z,58.90
2022-10-24T16:55:58.785Z,59.20
2022-10-24T16:57:32.227Z,59.40
2022-10-24T16:59:09.273Z,59.60
2022-10-24T17:00:46.158Z,59.80
2022-10-24T17:02:19.882Z,59.90
2022-10-24T17:03:53.137Z,60.20
2022-10-24T17:05:28.989Z,60.20
2022-10-24T17:07:04.838Z,60.70
2022-10-24T17:08:39.259Z,60.90
2022-10-24T17:10:16.162Z,61.40
2022-10-24T17:11:56.490Z,61.60
2022-10-24T17:13:30.626Z,61.80
2022-10-24T17:15:08.174Z,61.90
2022-10-24T17:16:42.643Z,62.10
2022-10-24T17:18:16.465Z,62.10
2022-10-24T17:19:50.997Z,62.20
2022-10-24T17:21:27.704Z,62.30
2022-10-24T17:23:04.361Z,63.00
2022-10-24T17:24:50.023Z,62.30
2022-10-24T17:26:23.788Z,62.30
2022-10-24T17:27:57.417Z,62.60
2022-10-24T17:29:34.294Z,62.70
2022-10-24T17:31:09.903Z,63.00
2022-10-24T17:32:43.828Z,63.10
2022-10-24T17:34:18.402Z,63.10
2022-10-24T17:35:57.505Z,63.20
2022-10-24T17:37:47.900Z,63.30
2022-10-24T17:39:26.846Z,63.60
2022-10-24T17:41:10.572Z,63.60
2022-10-24T17:42:47.634Z,63.60
2022-10-24T17:44:22.113Z,63.60
2022-10-24T17:45:57.540Z,63.70
2022-10-24T17:47:32.331Z,63.70
2022-10-24T17:49:05.584Z,63.90
2022-10-24T17:50:39.071Z,63.90
2022-10-24T17:52:16.908Z,64.10
2022-10-24T17:53:50.285Z,64.20
2022-10-24T17:55:44.920Z,64.20
2022-10-24T17:57:19.527Z,65.40
2022-10-24T17:58:53.061Z,64.50
2022-10-24T18:00:26.470Z,64.50
2022-10-24T18:02:02.676Z,64.50
2022-10-24T18:03:37.400Z,64.70
2022-10-24T18:05:10.889Z,64.70
2022-10-24T18:06:54.767Z,64.80
2022-10-24T18:08:28.918Z,64.80
2022-10-24T18:10:02.509Z,64.90
2022-10-24T18:11:36.103Z,65.00
2022-10-24T18:13:12.187Z,65.00
2022-10-24T18:14:45.880Z,65.00
2022-10-24T18:16:20.864Z,65.10
2022-10-24T18:17:54.181Z,65.30
2022-10-24T18:19:29.057Z,65.30
2022-10-24T18:21:10.347Z,65.30
2022-10-24T18:22:45.506Z,65.50
2022-10-24T18:24:19.313Z,65.40
2022-10-24T18:25:52.810Z,65.50
2022-10-24T18:27:26.034Z,65.50
2022-10-24T18:28:59.362Z,65.50
2022-10-24T18:30:33.031Z,65.60
2022-10-24T18:32:06.634Z,65.60
2022-10-24T18:33:40.889Z,65.60
2022-10-24T18:35:16.323Z,65.70
2022-10-24T18:36:49.534Z,65.50
2022-10-24T18:38:22.739Z,65.10
2022-10-24T18:39:57.139Z,64.40
2022-10-24T18:41:42.963Z,63.70
2022-10-24T18:43:18.908Z,62.90
2022-10-24T18:44:53.319Z,63.20
2022-10-24T18:46:38.297Z,63.50
2022-10-24T18:48:12.953Z,63.50
2022-10-24T18:49:47.501Z,63.40
2022-10-24T18:51:34.445Z,63.20
2022-10-24T18:53:22.138Z,63.10
2022-10-24T18:55:05.946Z,63.30
2022-10-24T18:56:40.605Z,63.50
2022-10-24T18:58:16.232Z,63.50
2022-10-24T18:59:49.964Z,63.60
2022-10-24T19:01:37.914Z,63.60
2022-10-24T19:03:25.509Z,63.50
2022-10-24T19:05:14.984Z,64.00
2022-10-24T19:06:56.279Z,63.20
2022-10-24T19:08:30.666Z,64.30
2022-10-24T19:10:04.388Z,63.40
2022-10-24T19:11:38.426Z,63.60
2022-10-24T19:13:12.564Z,63.70
2022-10-24T19:14:46.873Z,64.00
2022-10-24T19:16:28.621Z,64.00
2022-10-24T19:18:05.386Z,64.10
2022-10-24T19:19:39.517Z,64.10
2022-10-24T19:21:24.416Z,64.20
2022-10-24T19:23:04.754Z,64.40
2022-10-24T19:24:38.043Z,64.40
2022-10-24T19:26:13.402Z,64.70
2022-10-24T19:27:49.262Z,64.30
2022-10-24T19:29:22.637Z,64.30
2022-10-24T19:30:57.173Z,64.30
2022-10-24T19:32:30.383Z,64.40
2022-10-24T19:34:03.801Z,64.60
2022-10-24T19:35:40.324Z,64.70
2022-10-24T19:37:15.640Z,65.00
2022-10-24T19:38:56.404Z,65.30
2022-10-24T19:40:29.691Z,65.70
2022-10-24T19:42:02.897Z,65.80
2022-10-24T19:43:36.075Z,66.00
2022-10-24T19:45:10.114Z,66.00
2022-10-24T19:46:43.333Z,66.00
2022-10-24T19:48:16.882Z,66.00
2022-10-24T19:49:50.345Z,66.10
2022-10-24T19:51:25.149Z,66.30
2022-10-24T19:52:58.245Z,67.20
2022-10-24T19:54:32.730Z,66.50
2022-10-24T19:56:06.847Z,66.60
2022-10-24T19:57:39.988Z,66.70
2022-10-24T19:59:13.181Z,66.80
2022-10-24T20:00:47.208Z,66.80
2022-10-24T20:02:20.636Z,66.80
2022-10-24T20:03:54.947Z,66.90
2022-10-24T20:05:28.902Z,66.90
2022-10-24T20:07:02.030Z,66.90
2022-10-24T20:08:35.645Z,66.70
2022-10-24T20:10:10.817Z,66.70
2022-10-24T20:11:44.231Z,66.70
2022-10-24T20:13:18.077Z,66.70
2022-10-24T20:14:51.266Z,66.60
2022-10-24T20:16:24.562Z,66.80
2022-10-24T20:17:57.738Z,66.80
2022-10-24T20:19:31.015Z,66.90
2022-10-24T20:21:08.412Z,67.10
2022-10-24T20:22:42.751Z,68.10
2022-10-24T20:24:15.897Z,67.20
2022-10-24T20:25:57.486Z,67.20
2022-10-24T20:27:30.782Z,67.50
2022-10-24T20:29:04.168Z,67.30
2022-10-24T20:30:41.954Z,67.40
2022-10-24T20:32:15.268Z,67.60
2022-10-24T20:33:48.911Z,67.60
2022-10-24T20:35:22.905Z,67.70
2022-10-24T20:36:57.095Z,67.70
2022-10-24T20:38:31.005Z,67.80
2022-10-24T20:40:04.504Z,67.80
2022-10-24T20:41:39.400Z,67.90
2022-10-24T20:43:12.627Z,68.00
2022-10-24T20:44:45.918Z,67.90
2022-10-24T20:46:19.282Z,68.00
2022-10-24T20:47:53.999Z,68.10
2022-10-24T20:49:27.642Z,68.30
2022-10-24T20:51:09.753Z,68.50
2022-10-24T20:52:42.949Z,68.90
2022-10-24T20:54:16.326Z,68.70
2022-10-24T20:55:49.927Z,68.70
2022-10-24T20:57:24.603Z,68.70
2022-10-24T20:58:57.846Z,68.90
2022-10-24T21:00:31.173Z,68.80
2022-10-24T21:02:14.751Z,68.70
2022-10-24T21:03:49.387Z,68.90
2022-10-24T21:05:24.953Z,69.00
2022-10-24T21:06:58.107Z,68.90
2022-10-24T21:08:31.213Z,68.90
2022-10-24T21:10:05.838Z,69.00
2022-10-24T21:11:39.042Z,69.20
2022-10-24T21:13:13.682Z,69.20
2022-10-24T21:14:46.936Z,69.30
2022-10-24T21:16:20.932Z,69.40
2022-10-24T21:17:54.498Z,69.30
2022-10-24T21:19:28.079Z,69.30
2022-10-24T21:21:08.207Z,69.30
2022-10-24T21:22:41.478Z,69.60
2022-10-24T21:24:17.668Z,69.40
2022-10-24T21:25:51.033Z,69.50
2022-10-24T21:27:24.291Z,69.50
2022-10-24T21:29:08.697Z,69.50
2022-10-24T21:30:47.914Z,69.60
2022-10-24T21:32:21.415Z,69.60
2022-10-24T21:33:55.566Z,69.60
2022-10-24T21:35:28.867Z,69.50
2022-10-24T21:37:01.933Z,69.50
2022-10-24T21:38:35.541Z,69.40
2022-10-24T21:40:09.915Z,69.40
2022-10-24T21:41:43.587Z,70.20
2022-10-24T21:43:16.969Z,69.50
2022-10-24T21:44:52.969Z,69.70
2022-10-24T21:46:29.167Z,69.90